createdAt,value
2022-10-12T00:01:38.178Z,8.47
2022-10-12T00:04:05.445Z,9.00
2022-10-12T00:06:32.594Z,9.77
2022-10-12T00:08:59.761Z,9.40
2022-10-12T00:11:29.143Z,8.40
2022-10-12T00:13:57.825Z,6.60
2022-10-12T00:16:26.782Z,6.70
2022-10-12T00:18:56.044Z,7.00
2022-10-12T00:21:24.822Z,6.73
2022-10-12T00:23:52.109Z,7.53
2022-10-12T00:26:21.757Z,8.10
2022-10-12T00:28:49.913Z,7.60
2022-10-12T00:31:21.212Z,7.73
2022-10-12T00:33:49.011Z,8.13
2022-10-12T00:36:20.778Z,8.43
2022-10-12T00:38:49.194Z,7.80
2022-10-12T00:41:17.854Z,7.27
2022-10-12T00:43:47.436Z,7.67
2022-10-12T00:46:34.644Z,7.43
2022-10-12T00:49:22.567Z,6.83
2022-10-12T00:52:05.276Z,8.33
2022-10-12T00:54:38.179Z,7.07
2022-10-12T00:57:06.399Z,7.30
2022-10-12T00:59:40.040Z,8.00
2022-10-12T01:02:07.655Z,7.53
2022-10-12T01:04:35.651Z,8.17
2022-10-12T01:07:02.908Z,6.90
2022-10-12T01:09:30.390Z,8.00
2022-10-12T01:11:58.621Z,9.27
2022-10-12T01:14:26.445Z,8.43
2022-10-12T01:16:58.097Z,7.67
2022-10-12T01:19:44.088Z,7.13
2022-10-12T01:22:19.947Z,7.50
2022-10-12T01:24:52.907Z,8.50
2022-10-12T01:27:38.143Z,7.13
2022-10-12T01:30:25.758Z,7.80
2022-10-12T01:33:23.625Z,9.03
2022-10-12T01:36:27.591Z,7.77
2022-10-12T01:39:02.727Z,8.47
2022-10-12T01:41:36.802Z,8.57
2022-10-12T01:44:04.096Z,8.47
2022-10-12T01:46:31.412Z,8.63
2022-10-12T01:49:01.518Z,7.70
2022-10-12T01:51:55.226Z,8.30
2022-10-12T01:54:39.373Z,8.00
2022-10-12T01:57:31.516Z,8.30
2022-10-12T02:00:13.954Z,8.27
2022-10-12T02:03:18.666Z,7.67
2022-10-12T02:06:07.422Z,7.53
2022-10-12T02:09:03.759Z,7.77
2022-10-12T02:11:34.269Z,7.40
2022-10-12T02:14:21.606Z,7.17
2022-10-12T02:16:59.752Z,7.30
2022-10-12T02:19:36.130Z,7.13
2022-10-12T02:22:07.185Z,6.87
2022-10-12T02:24:37.522Z,8.77
2022-10-12T02:27:09.103Z,8.13
2022-10-12T02:29:42.079Z,7.13
2022-10-12T02:32:29.133Z,7.63
2022-10-12T02:34:58.375Z,7.70
2022-10-12T02:37:34.172Z,7.87
2022-10-12T02:40:17.532Z,6.80
2022-10-12T02:43:11.334Z,6.80
2022-10-12T02:45:45.026Z,7.93
2022-10-12T02:48:17.582Z,7.80
2022-10-12T02:50:46.088Z,7.40
2022-10-12T02:53:14.892Z,7.87
2022-10-12T02:55:53.698Z,7.67
2022-10-12T02:58:21.034Z,7.67
2022-10-12T03:00:48.514Z,7.20
2022-10-12T03:03:15.716Z,7.27
2022-10-12T03:05:43.047Z,6.87
2022-10-12T03:08:10.291Z,6.83
2022-10-12T03:10:37.573Z,7.43
2022-10-12T03:13:04.804Z,7.10
2022-10-12T03:15:32.327Z,9.70
2022-10-12T03:17:59.527Z,7.27
2022-10-12T03:20:26.730Z,6.57
2022-10-12T03:22:53.924Z,7.40
2022-10-12T03:25:21.160Z,8.07
2022-10-12T03:27:48.496Z,7.37
2022-10-12T03:30:15.850Z,7.50
2022-10-12T03:32:42.997Z,6.97
2022-10-12T03:35:10.486Z,6.93
2022-10-12T03:37:37.897Z,7.60
2022-10-12T03:40:05.913Z,6.70
2022-10-12T03:42:33.010Z,7.10
2022-10-12T03:45:00.168Z,7.20
2022-10-12T03:47:27.506Z,7.10
2022-10-12T03:49:54.682Z,7.43
2022-10-12T03:52:21.848Z,6.10
2022-10-12T03:54:49.016Z,6.80
2022-10-12T03:57:16.169Z,7.17
2022-10-12T03:59:43.427Z,6.67
2022-10-12T04:02:15.822Z,7.27
2022-10-12T04:04:44.024Z,7.40
2022-10-12T04:07:11.545Z,6.70
2022-10-12T04:09:38.867Z,6.57
2022-10-12T04:12:06.739Z,7.27
2022-10-12T04:14:33.892Z,7.33
2022-10-12T04:17:01.043Z,7.00
2022-10-12T04:19:28.619Z,7.23
2022-10-12T04:21:55.788Z,6.30
2022-10-12T04:24:23.080Z,7.30
2022-10-12T04:26:50.252Z,7.03
2022-10-12T04:29:17.677Z,7.37
2022-10-12T04:31:44.977Z,7.13
2022-10-12T04:34:12.346Z,7.00
2022-10-12T04:36:39.611Z,7.57
2022-10-12T04:39:06.891Z,6.50
2022-10-12T04:41:34.159Z,6.97
2022-10-12T04:44:01.427Z,7.37
2022-10-12T04:46:28.660Z,6.73
2022-10-12T04:48:55.924Z,7.53
2022-10-12T04:51:23.231Z,6.83
2022-10-12T04:53:50.440Z,7.27
2022-10-12T04:56:18.134Z,6.90
2022-10-12T04:58:45.335Z,6.90
2022-10-12T05:01:12.634Z,6.80
2022-10-12T05:03:42.145Z,7.47
2022-10-12T05:06:09.547Z,5.93
2022-10-12T05:08:36.792Z,6.67
2022-10-12T05:11:04.345Z,6.10
2022-10-12T05:13:31.651Z,6.60
2022-10-12T05:15:59.039Z,6.93
2022-10-12T05:18:26.255Z,7.90
2022-10-12T05:20:57.006Z,6.40
2022-10-12T05:23:24.554Z,7.37
2022-10-12T05:25:51.697Z,8.00
2022-10-12T05:28:18.875Z,8.67
2022-10-12T05:30:50.649Z,9.77
2022-10-12T05:33:18.128Z,10.33
2022-10-12T05:35:48.839Z,10.10
2022-10-12T05:38:17.555Z,9.50
2022-10-12T05:40:44.823Z,8.90
2022-10-12T05:43:12.037Z,10.10
2022-10-12T05:45:39.185Z,9.67
2022-10-12T05:48:06.579Z,8.90
2022-10-12T05:50:33.812Z,8.53
2022-10-12T05:53:00.913Z,8.60
2022-10-12T05:55:28.179Z,8.47
2022-10-12T05:57:55.701Z,9.50
2022-10-12T06:00:23.239Z,8.67
2022-10-12T06:02:50.567Z,8.73
2022-10-12T06:05:17.866Z,8.77
2022-10-12T06:07:45.011Z,7.23
2022-10-12T06:10:13.069Z,7.67
2022-10-12T06:12:40.751Z,8.80
2022-10-12T06:15:08.898Z,8.30
2022-10-12T06:17:36.039Z,7.80
2022-10-12T06:20:03.809Z,9.10
2022-10-12T06:22:31.203Z,8.63
2022-10-12T06:24:58.655Z,8.00
2022-10-12T06:27:25.892Z,7.60
2022-10-12T06:29:53.124Z,8.00
2022-10-12T06:32:20.427Z,9.63
2022-10-12T06:34:47.588Z,6.83
2022-10-12T06:37:37.164Z,7.10
2022-10-12T06:40:01.840Z,7.03
2022-10-12T06:42:29.046Z,7.90
2022-10-12T06:44:56.339Z,7.53
2022-10-12T06:47:23.532Z,7.10
2022-10-12T06:49:50.850Z,7.20
2022-10-12T06:52:18.467Z,6.93
2022-10-12T06:54:45.880Z,6.80
2022-10-12T06:57:13.055Z,6.63
2022-10-12T06:59:40.344Z,6.30
2022-10-12T07:02:10.884Z,6.50
2022-10-12T07:04:38.056Z,6.67
2022-10-12T07:07:05.335Z,5.83
2022-10-12T07:09:32.487Z,5.67
2022-10-12T07:11:59.685Z,5.77
2022-10-12T07:14:26.940Z,6.40
2022-10-12T07:16:55.484Z,6.40
2022-10-12T07:19:22.814Z,6.60
2022-10-12T07:21:49.972Z,5.80
2022-10-12T07:24:17.213Z,6.00
2022-10-12T07:26:44.583Z,6.80
2022-10-12T07:29:11.891Z,6.30
2022-10-12T07:31:38.997Z,5.77
2022-10-12T07:34:06.362Z,6.03
2022-10-12T07:36:57.504Z,4.90
2022-10-12T07:39:22.561Z,5.43
2022-10-12T07:41:50.855Z,5.03
2022-10-12T07:44:19.628Z,5.30
2022-10-12T07:46:47.099Z,6.73
2022-10-12T07:49:15.601Z,6.00
2022-10-12T07:51:43.457Z,6.07
2022-10-12T07:54:10.970Z,5.50
2022-10-12T07:56:38.412Z,5.33
2022-10-12T07:59:05.707Z,5.60
2022-10-12T08:01:34.722Z,5.87
2022-10-12T08:04:02.289Z,5.90
2022-10-12T08:06:32.003Z,5.80
2022-10-12T08:09:00.784Z,6.50
2022-10-12T08:11:29.510Z,7.53
2022-10-12T08:13:56.789Z,6.07
2022-10-12T08:16:24.458Z,6.67
2022-10-12T08:18:51.918Z,5.90
2022-10-12T08:21:19.446Z,9.30
2022-10-12T08:23:47.259Z,6.47
2022-10-12T08:26:15.770Z,6.40
2022-10-12T08:28:43.193Z,5.90
2022-10-12T08:31:13.334Z,6.27
2022-10-12T08:33:41.036Z,6.13
2022-10-12T08:36:09.089Z,5.83
2022-10-12T08:38:38.985Z,5.70
2022-10-12T08:41:44.047Z,6.07
2022-10-12T08:44:39.062Z,6.70
2022-10-12T08:47:21.187Z,6.23
2022-10-12T08:49:50.653Z,6.70
2022-10-12T08:52:33.495Z,6.73
2022-10-12T08:55:16.467Z,7.10
2022-10-12T08:57:49.057Z,6.60
2022-10-12T09:00:18.121Z,6.30
2022-10-12T09:03:04.187Z,6.33
2022-10-12T09:05:37.456Z,7.00
2022-10-12T09:08:11.256Z,5.50
2022-10-12T09:10:47.308Z,7.80
2022-10-12T09:13:44.639Z,5.63
2022-10-12T09:16:32.480Z,5.90
2022-10-12T09:19:07.160Z,5.20
2022-10-12T09:21:35.452Z,5.00
2022-10-12T09:24:05.186Z,4.97
2022-10-12T09:26:38.099Z,6.07
2022-10-12T09:29:23.557Z,5.80
2022-10-12T09:32:08.908Z,5.17
2022-10-12T09:34:36.485Z,4.80
2022-10-12T09:37:04.931Z,4.90
2022-10-12T09:39:35.777Z,5.07
2022-10-12T09:42:03.448Z,5.07
2022-10-12T09:44:40.475Z,5.40
2022-10-12T09:47:28.300Z,4.80
2022-10-12T09:50:04.335Z,4.20
2022-10-12T09:52:44.004Z,3.97
2022-10-12T09:58:00.216Z,5.07
2022-10-12T10:00:29.408Z,4.50
2022-10-12T10:02:57.512Z,5.03
2022-10-12T10:05:28.007Z,5.37
2022-10-12T10:08:14.870Z,5.00
2022-10-12T10:10:53.332Z,4.57
2022-10-12T10:13:23.359Z,5.40
2022-10-12T10:15:52.394Z,5.10
2022-10-12T10:18:25.747Z,5.10
2022-10-12T10:21:04.575Z,6.30
2022-10-12T10:24:03.363Z,4.77
2022-10-12T10:26:53.347Z,5.00
2022-10-12T10:29:32.620Z,4.93
2022-10-12T10:32:30.012Z,5.10
2022-10-12T10:35:13.231Z,5.13
2022-10-12T10:38:01.096Z,4.40
2022-10-12T10:40:33.230Z,3.47
2022-10-12T10:43:07.027Z,4.00
2022-10-12T10:45:48.333Z,4.60
2022-10-12T10:48:32.340Z,4.73
2022-10-12T10:51:02.951Z,6.33
2022-10-12T10:53:48.660Z,4.50
2022-10-12T10:56:22.001Z,5.10
2022-10-12T10:59:31.193Z,4.80
2022-10-12T11:02:02.532Z,4.23
2022-10-12T11:04:37.515Z,4.50
2022-10-12T11:07:29.943Z,3.90
2022-10-12T11:10:01.268Z,4.17
2022-10-12T11:12:37.636Z,4.43
2022-10-12T11:15:24.000Z,6.13
2022-10-12T11:17:57.845Z,5.13
2022-10-12T11:20:37.725Z,5.80
2022-10-12T11:23:39.129Z,4.20
2022-10-12T11:26:40.166Z,6.70
2022-10-12T11:29:10.988Z,5.50
2022-10-12T11:31:43.140Z,4.37
2022-10-12T11:34:20.176Z,5.13
2022-10-12T11:37:14.765Z,5.00
2022-10-12T11:39:45.295Z,4.97
2022-10-12T11:42:21.710Z,4.90
2022-10-12T11:44:50.428Z,4.70
2022-10-12T11:47:37.729Z,4.50
2022-10-12T11:50:45.201Z,4.60
2022-10-12T11:53:32.616Z,4.63
2022-10-12T11:56:17.604Z,4.90
2022-10-12T11:59:00.497Z,5.43
2022-10-12T12:01:40.562Z,5.90
2022-10-12T12:04:41.696Z,5.33
2022-10-12T12:07:47.323Z,5.67
2022-10-12T12:10:31.942Z,5.33
2022-10-12T12:13:12.788Z,4.87
2022-10-12T12:15:41.843Z,4.13
2022-10-12T12:18:19.968Z,5.03
2022-10-12T12:20:47.151Z,4.93
2022-10-12T12:23:21.447Z,5.20
2022-10-12T12:26:15.727Z,4.70
2022-10-12T12:28:43.585Z,5.83
2022-10-12T12:31:22.222Z,4.83
2022-10-12T12:34:02.068Z,4.60
2022-10-12T12:36:36.845Z,5.10
2022-10-12T12:39:06.966Z,4.20
2022-10-12T12:42:01.922Z,4.70
2022-10-12T12:44:41.562Z,4.97
2022-10-12T12:47:39.815Z,5.33
2022-10-12T12:50:23.806Z,5.17
2022-10-12T12:52:52.008Z,5.00
2022-10-12T12:56:00.994Z,6.13
2022-10-12T12:59:01.455Z,5.70
2022-10-12T13:02:10.314Z,5.43
2022-10-12T13:05:01.208Z,5.07
2022-10-12T13:07:34.428Z,6.07
2022-10-12T13:10:07.500Z,5.00
2022-10-12T13:13:16.966Z,5.27
2022-10-12T13:16:11.822Z,5.60
2022-10-12T13:19:01.320Z,5.00
2022-10-12T13:21:47.169Z,5.27
2022-10-12T13:24:28.537Z,5.47
2022-10-12T13:27:00.432Z,5.70
2022-10-12T13:29:30.887Z,5.10
2022-10-12T13:32:00.863Z,5.57
2022-10-12T13:34:37.107Z,4.43
2022-10-12T13:37:11.201Z,5.13
2022-10-12T13:39:47.213Z,5.27
2022-10-12T13:42:18.601Z,4.87
2022-10-12T13:44:48.208Z,4.80
2022-10-12T13:47:27.140Z,6.37
2022-10-12T13:49:55.842Z,5.27
2022-10-12T13:52:32.904Z,4.73
2022-10-12T13:55:01.511Z,5.20
2022-10-12T13:57:50.396Z,4.63
2022-10-12T14:00:22.750Z,5.40
2022-10-12T14:02:59.769Z,5.90
2022-10-12T14:05:29.779Z,5.17
2022-10-12T14:08:02.064Z,5.10
2022-10-12T14:10:35.290Z,5.37
2022-10-12T14:13:04.461Z,5.10
2022-10-12T14:15:37.207Z,5.83
2022-10-12T14:18:04.784Z,5.03
2022-10-12T14:20:37.915Z,5.40
2022-10-12T14:23:15.524Z,5.60
2022-10-12T14:25:54.378Z,5.33
2022-10-12T14:28:35.444Z,4.90
2022-10-12T14:34:37.655Z,5.40
2022-10-12T14:37:21.308Z,5.43
2022-10-12T14:39:49.895Z,5.40
2022-10-12T14:42:28.588Z,5.70
2022-10-12T14:44:55.682Z,5.43
2022-10-12T14:47:28.692Z,5.63
2022-10-12T14:49:58.686Z,4.97
2022-10-12T14:52:45.209Z,4.80
2022-10-12T14:55:24.247Z,5.30
2022-10-12T14:57:52.363Z,5.63
2022-10-12T15:00:28.903Z,5.10
2022-10-12T15:02:56.157Z,4.63
2022-10-12T15:05:25.172Z,5.13
2022-10-12T15:07:52.930Z,5.20
2022-10-12T15:10:22.640Z,4.47
2022-10-12T15:12:50.200Z,5.33
2022-10-12T15:15:28.997Z,4.80
2022-10-12T15:17:57.301Z,5.00
2022-10-12T15:20:29.820Z,5.83
2022-10-12T15:22:58.509Z,6.40
2022-10-12T15:25:36.637Z,5.97
2022-10-12T15:28:04.377Z,5.43
2022-10-12T15:30:32.666Z,5.93
2022-10-12T15:32:59.846Z,5.63
2022-10-12T15:35:29.382Z,5.33
2022-10-12T15:37:56.430Z,7.17
2022-10-12T15:40:24.118Z,7.53
2022-10-12T15:42:51.206Z,7.33
2022-10-12T15:45:22.914Z,6.93
2022-10-12T15:47:51.490Z,7.40
2022-10-12T15:50:22.199Z,8.13
2022-10-12T15:52:49.717Z,7.43
2022-10-12T15:55:28.457Z,7.03
2022-10-12T15:57:56.391Z,6.50
2022-10-12T16:00:26.548Z,7.00
2022-10-12T16:02:54.831Z,6.73
2022-10-12T16:05:29.739Z,6.43
2022-10-12T16:07:56.922Z,6.33
2022-10-12T16:10:31.449Z,6.43
2022-10-12T16:12:58.771Z,6.97
2022-10-12T16:15:33.694Z,6.60
2022-10-12T16:18:02.260Z,6.10
2022-10-12T16:20:31.829Z,6.43
2022-10-12T16:23:00.462Z,6.70
2022-10-12T16:25:28.272Z,6.00
2022-10-12T16:27:57.210Z,6.90
2022-10-12T16:30:25.885Z,6.50
2022-10-12T16:32:53.750Z,7.10
2022-10-12T16:35:21.241Z,6.40
2022-10-12T16:37:48.483Z,6.20
2022-10-12T16:40:16.131Z,6.10
2022-10-12T16:42:43.436Z,6.20
2022-10-12T16:45:11.353Z,6.90
2022-10-12T16:47:41.924Z,6.37
2022-10-12T16:50:10.400Z,6.13
2022-10-12T16:52:37.627Z,7.23
2022-10-12T16:55:05.588Z,6.47
2022-10-12T16:57:33.555Z,5.83
2022-10-12T17:00:01.161Z,6.50
2022-10-12T17:02:28.390Z,5.60
2022-10-12T17:04:55.463Z,6.97
2022-10-12T17:07:22.635Z,7.07
2022-10-12T17:09:49.723Z,7.97
2022-10-12T17:12:17.253Z,8.10
2022-10-12T17:14:44.760Z,7.77
2022-10-12T17:17:11.814Z,5.20
2022-10-12T17:19:40.079Z,5.80
2022-10-12T17:22:09.740Z,5.73
2022-10-12T17:24:38.867Z,6.30
2022-10-12T17:27:08.107Z,5.80
2022-10-12T17:29:36.609Z,6.33
2022-10-12T17:32:04.479Z,6.40
2022-10-12T17:34:34.836Z,6.60
2022-10-12T17:37:03.106Z,6.77
2022-10-12T17:39:36.492Z,5.33
2022-10-12T17:42:04.499Z,6.50
2022-10-12T17:44:31.661Z,5.70
2022-10-12T17:46:58.982Z,5.87
2022-10-12T17:49:27.806Z,5.60
2022-10-12T17:51:55.698Z,5.67
2022-10-12T17:54:25.061Z,5.90
2022-10-12T17:56:53.019Z,6.17
2022-10-12T17:59:20.378Z,5.73
2022-10-12T18:01:48.435Z,6.80
2022-10-12T18:04:15.748Z,8.03
2022-10-12T18:06:43.172Z,7.63
2022-10-12T18:09:10.357Z,8.93
2022-10-12T18:11:39.190Z,8.00
2022-10-12T18:14:09.347Z,7.67
2022-10-12T18:16:37.532Z,7.37
2022-10-12T18:19:06.386Z,7.80
2022-10-12T18:21:34.093Z,6.47
2022-10-12T18:24:03.677Z,7.40
2022-10-12T18:26:31.051Z,6.40
2022-10-12T18:29:01.418Z,6.83
2022-10-12T18:31:29.542Z,6.60
2022-10-12T18:33:57.503Z,9.37
2022-10-12T18:36:26.163Z,8.00
2022-10-12T18:38:54.009Z,6.93
2022-10-12T18:41:23.497Z,7.20
2022-10-12T18:43:57.571Z,7.00
2022-10-12T18:46:27.037Z,6.40
2022-10-12T18:48:54.239Z,6.77
2022-10-12T18:51:30.060Z,7.57
2022-10-12T18:53:58.171Z,7.30
2022-10-12T18:56:26.131Z,7.00
2022-10-12T18:58:53.779Z,7.87
2022-10-12T19:01:24.395Z,7.13
2022-10-12T19:03:52.283Z,7.90
2022-10-12T19:06:25.405Z,6.80
2022-10-12T19:08:54.096Z,7.67
2022-10-12T19:11:22.837Z,6.13
2022-10-12T19:13:54.828Z,8.43
2022-10-12T19:16:22.424Z,7.23
2022-10-12T19:18:49.974Z,8.03
2022-10-12T19:21:18.506Z,7.00
2022-10-12T19:23:45.916Z,7.43
2022-10-12T19:26:16.783Z,8.17
2022-10-12T19:28:45.163Z,8.33
2022-10-12T19:31:19.754Z,8.67
2022-10-12T19:33:47.150Z,9.13
2022-10-12T19:36:16.110Z,8.93
2022-10-12T19:38:45.922Z,8.60
2022-10-12T19:41:13.912Z,7.90
2022-10-12T19:43:43.062Z,8.23
2022-10-12T19:46:12.091Z,8.80
2022-10-12T19:48:42.065Z,8.00
2022-10-12T19:51:12.094Z,7.43
2022-10-12T19:53:40.477Z,8.00
2022-10-12T19:56:16.340Z,8.83
2022-10-12T19:58:45.291Z,8.30
2022-10-12T20:01:18.556Z,7.40
2022-10-12T20:03:47.932Z,8.73
2022-10-12T20:06:15.955Z,7.60
2022-10-12T20:08:44.574Z,8.83
2022-10-12T20:11:18.259Z,8.00
2022-10-12T20:13:48.567Z,8.00
2022-10-12T20:16:17.745Z,8.00
2022-10-12T20:18:45.822Z,8.37
2022-10-12T20:21:14.995Z,7.10
2022-10-12T20:23:44.654Z,7.50
2022-10-12T20:26:17.762Z,7.40
2022-10-12T20:28:45.197Z,8.03
2022-10-12T20:31:12.655Z,7.97
2022-10-12T20:33:40.327Z,9.90
2022-10-12T20:36:15.379Z,8.00
2022-10-12T20:38:43.802Z,7.93
2022-10-12T20:41:13.370Z,7.67
2022-10-12T20:43:41.673Z,7.90
2022-10-12T20:46:13.018Z,8.33
2022-10-12T20:48:40.367Z,9.37
2022-10-12T20:51:09.201Z,7.60
2022-10-12T20:53:37.765Z,9.10
2022-10-12T20:56:08.881Z,7.47
2022-10-12T20:58:35.945Z,8.73
2022-10-12T21:01:08.803Z,8.90
2022-10-12T21:03:36.592Z,7.87
2022-10-12T21:06:09.168Z,7.90
2022-10-12T21:08:36.612Z,7.87
2022-10-12T21:11:04.615Z,7.20
2022-10-12T21:13:35.766Z,9.40
2022-10-12T21:16:02.873Z,8.93
2022-10-12T21:18:34.003Z,7.47
2022-10-12T21:21:24.024Z,7.40
2022-10-12T21:23:56.854Z,8.90
2022-10-12T21:26:26.172Z,7.93
2022-10-12T21:28:54.101Z,8.00
2022-10-12T21:31:22.110Z,8.53
2022-10-12T21:33:49.508Z,7.83
2022-10-12T21:36:24.514Z,7.63
2022-10-12T21:38:51.712Z,8.10
2022-10-12T21:41:21.699Z,7.73
2022-10-12T21:43:50.098Z,8.20
2022-10-12T21:46:22.680Z,7.17
2022-10-12T21:48:50.586Z,7.50
2022-10-12T21:51:19.303Z,7.20
2022-10-12T21:53:46.819Z,7.60
2022-10-12T21:56:20.138Z,8.53
2022-10-12T21:58:48.479Z,7.53
2022-10-12T22:01:18.500Z,8.60
2022-10-12T22:03:46.262Z,7.93
2022-10-12T22:06:18.107Z,7.00
2022-10-12T22:08:49.595Z,7.10
2022-10-12T22:11:17.000Z,7.30
2022-10-12T22:13:44.229Z,7.30
2022-10-12T22:16:14.042Z,7.73
2022-10-12T22:18:41.615Z,8.13
2022-10-12T22:21:12.222Z,7.77
2022-10-12T22:23:39.701Z,7.37
2022-10-12T22:26:10.602Z,8.07
2022-10-12T22:28:37.691Z,8.40
2022-10-12T22:31:12.657Z,7.40
2022-10-12T22:33:40.287Z,8.70
2022-10-12T22:36:08.498Z,8.77
2022-10-12T22:38:35.707Z,8.60
2022-10-12T22:41:08.011Z,7.90
2022-10-12T22:43:35.683Z,8.27
2022-10-12T22:46:03.425Z,8.20
2022-10-12T22:48:30.805Z,7.30
2022-10-12T22:50:58.181Z,7.87
2022-10-12T22:53:25.755Z,8.53
2022-10-12T22:56:01.658Z,8.03
2022-10-12T22:58:29.598Z,8.47
2022-10-12T23:01:05.272Z,8.50
2022-10-12T23:03:33.386Z,7.67
2022-10-12T23:06:00.559Z,7.73
2022-10-12T23:08:28.385Z,8.00
2022-10-12T23:10:56.117Z,7.87
2022-10-12T23:13:23.161Z,9.10
2022-10-12T23:15:50.282Z,9.33
2022-10-12T23:18:17.331Z,7.47
2022-10-12T23:20:44.414Z,7.07
2022-10-12T23:23:11.525Z,7.87
2022-10-12T23:25:38.580Z,7.67
2022-10-12T23:28:05.643Z,7.90
2022-10-12T23:30:32.677Z,7.90
2022-10-12T23:32:59.755Z,6.93
2022-10-12T23:35:26.888Z,7.10
2022-10-12T23:37:53.973Z,8.00
2022-10-12T23:40:21.032Z,7.80
2022-10-12T23:42:48.142Z,8.40
2022-10-12T23:45:15.277Z,7.90
2022-10-12T23:47:42.301Z,7.03
2022-10-12T23:50:09.614Z,8.63
2022-10-12T23:52:36.743Z,7.87
2022-10-12T23:55:04.123Z,7.60
2022-10-12T23:57:47.508Z,8.50
